createdAt,value
2018-08-03T00:00:11.012Z,6.43
2018-08-03T00:02:45.303Z,7.80
2018-08-03T00:05:19.649Z,7.20
2018-08-03T00:07:53.958Z,6.40
2018-08-03T00:10:28.370Z,6.90
2018-08-03T00:13:02.666Z,7.27
2018-08-03T00:15:36.962Z,11.13
2018-08-03T00:18:11.321Z,7.80
2018-08-03T00:20:45.630Z,10.63
2018-08-03T00:23:19.779Z,11.50
2018-08-03T00:25:54.108Z,9.30
2018-08-03T00:28:28.399Z,8.10
2018-08-03T00:31:02.818Z,8.80
2018-08-03T00:33:37.137Z,9.20
2018-08-03T00:36:11.558Z,8.63
2018-08-03T00:38:45.886Z,9.33
2018-08-03T00:41:20.289Z,7.93
2018-08-03T00:43:54.509Z,7.40
2018-08-03T00:46:28.773Z,8.10
2018-08-03T00:49:03.054Z,8.70
2018-08-03T00:51:38.070Z,9.77
2018-08-03T00:54:12.359Z,10.33
2018-08-03T00:56:46.661Z,9.57
2018-08-03T00:59:20.953Z,6.90
2018-08-03T01:01:55.136Z,8.60
2018-08-03T01:04:29.423Z,8.40
2018-08-03T01:07:03.742Z,9.77
2018-08-03T01:09:38.051Z,7.13
2018-08-03T01:12:12.249Z,10.13
2018-08-03T01:14:46.609Z,7.47
2018-08-03T01:17:20.825Z,10.33
2018-08-03T01:19:55.127Z,8.57
2018-08-03T01:22:29.146Z,9.20
2018-08-03T01:25:03.826Z,7.70
2018-08-03T01:27:38.051Z,7.77
2018-08-03T01:30:12.315Z,9.80
2018-08-03T01:32:46.575Z,7.80
2018-08-03T01:35:20.739Z,7.53
2018-08-03T01:37:55.009Z,7.73
2018-08-03T01:40:29.242Z,8.77
2018-08-03T01:43:03.473Z,7.30
2018-08-03T01:45:37.805Z,7.60
2018-08-03T01:48:12.078Z,8.00
2018-08-03T01:50:46.307Z,7.73
2018-08-03T01:53:20.695Z,14.83
2018-08-03T01:55:54.996Z,10.47
2018-08-03T01:58:29.221Z,10.33
2018-08-03T02:01:03.514Z,9.23
2018-08-03T02:03:37.918Z,10.90
2018-08-03T02:06:12.234Z,10.17
2018-08-03T02:08:46.529Z,8.13
2018-08-03T02:11:20.860Z,10.10
2018-08-03T02:13:55.077Z,8.43
2018-08-03T02:16:29.578Z,9.67
2018-08-03T02:19:03.899Z,10.13
2018-08-03T02:21:38.186Z,9.47
2018-08-03T02:24:12.491Z,9.10
2018-08-03T02:26:46.847Z,8.30
2018-08-03T02:29:21.187Z,8.90
2018-08-03T02:31:55.582Z,8.73
2018-08-03T02:34:29.817Z,9.53
2018-08-03T02:37:04.006Z,8.83
2018-08-03T02:39:38.287Z,8.83
2018-08-03T02:42:12.590Z,8.90
2018-08-03T02:44:46.834Z,8.23
2018-08-03T02:47:20.930Z,8.20
2018-08-03T02:49:55.306Z,8.40
2018-08-03T02:52:29.659Z,7.70
2018-08-03T02:55:04.063Z,8.20
2018-08-03T02:57:38.387Z,9.03
2018-08-03T03:00:12.706Z,7.60
2018-08-03T03:02:46.873Z,8.70
2018-08-03T03:05:21.177Z,10.20
2018-08-03T03:07:55.514Z,10.23
2018-08-03T03:10:29.809Z,12.57
2018-08-03T03:13:04.126Z,8.33
2018-08-03T03:15:38.320Z,10.97
2018-08-03T03:18:12.590Z,8.70
2018-08-03T03:20:46.994Z,8.90
2018-08-03T03:23:21.265Z,10.57
2018-08-03T03:25:55.507Z,9.17
2018-08-03T03:28:29.882Z,8.50
2018-08-03T03:31:04.151Z,7.97
2018-08-03T03:33:38.427Z,8.00
2018-08-03T03:36:12.708Z,9.20
2018-08-03T03:38:46.918Z,10.17
2018-08-03T03:41:21.205Z,9.17
2018-08-03T03:43:55.498Z,8.70
2018-08-03T03:46:29.781Z,8.70
2018-08-03T03:49:04.113Z,8.90
2018-08-03T03:51:38.454Z,9.67
2018-08-03T03:54:12.651Z,8.70
2018-08-03T03:56:46.883Z,10.03
2018-08-03T03:59:21.237Z,10.30
2018-08-03T04:01:55.582Z,13.30
2018-08-03T04:04:29.991Z,12.17
2018-08-03T04:07:04.218Z,11.03
2018-08-03T04:09:38.605Z,12.70
2018-08-03T04:12:12.989Z,12.77
2018-08-03T04:14:47.394Z,16.93
2018-08-03T04:17:21.702Z,13.97
2018-08-03T04:19:56.045Z,16.80
2018-08-03T04:22:30.335Z,15.23
2018-08-03T04:25:04.810Z,13.63
2018-08-03T04:27:39.082Z,15.83
2018-08-03T04:30:13.338Z,15.63
2018-08-03T04:32:47.625Z,14.53
2018-08-03T04:35:21.916Z,17.53
2018-08-03T04:37:56.243Z,15.03
2018-08-03T04:40:30.711Z,15.67
2018-08-03T04:43:04.725Z,15.00
2018-08-03T04:45:39.097Z,15.20
2018-08-03T04:48:13.471Z,15.93
2018-08-03T04:50:47.647Z,14.23
2018-08-03T04:53:21.960Z,13.53
2018-08-03T04:55:56.282Z,15.00
2018-08-03T04:58:30.471Z,14.60
2018-08-03T05:01:04.854Z,15.33
2018-08-03T05:03:39.178Z,15.20
2018-08-03T05:06:13.575Z,16.00
2018-08-03T05:08:47.823Z,14.57
2018-08-03T05:11:22.169Z,14.30
2018-08-03T05:13:56.418Z,21.90
2018-08-03T05:16:30.544Z,16.27
2018-08-03T05:19:04.714Z,18.00
2018-08-03T05:21:38.979Z,15.53
2018-08-03T05:24:13.248Z,15.17
2018-08-03T05:26:47.502Z,17.37
2018-08-03T05:29:21.812Z,15.03
2018-08-03T05:31:56.074Z,15.90
2018-08-03T05:34:30.439Z,16.07
2018-08-03T05:37:04.648Z,16.63
2018-08-03T05:39:38.834Z,16.30
2018-08-03T05:42:13.121Z,18.23
2018-08-03T05:44:47.390Z,16.13
2018-08-03T05:47:21.599Z,17.10
2018-08-03T05:49:55.871Z,16.67
2018-08-03T05:52:30.090Z,18.50
2018-08-03T05:55:04.573Z,16.37
2018-08-03T05:57:38.762Z,16.83
2018-08-03T06:00:13.069Z,18.10
2018-08-03T06:02:47.479Z,18.13
2018-08-03T06:05:21.742Z,16.80
2018-08-03T06:07:56.022Z,16.90
2018-08-03T06:10:30.355Z,17.10
2018-08-03T06:13:04.615Z,18.93
2018-08-03T06:15:38.914Z,18.50
2018-08-03T06:18:13.214Z,16.87
2018-08-03T06:20:47.581Z,17.87
2018-08-03T06:23:21.841Z,18.47
2018-08-03T06:25:56.170Z,19.17
2018-08-03T06:28:30.471Z,16.63
2018-08-03T06:31:04.754Z,15.37
2018-08-03T06:33:39.099Z,15.27
2018-08-03T06:36:13.198Z,15.47
2018-08-03T06:38:47.373Z,15.23
2018-08-03T06:41:21.571Z,14.20
2018-08-03T06:43:55.830Z,14.83
2018-08-03T06:46:30.004Z,15.20
2018-08-03T06:49:04.547Z,13.10
2018-08-03T06:51:38.889Z,18.77
2018-08-03T06:54:13.194Z,14.20
2018-08-03T06:56:47.654Z,15.33
2018-08-03T06:59:21.954Z,12.87
2018-08-03T07:01:56.219Z,14.20
2018-08-03T07:04:30.741Z,17.03
2018-08-03T07:07:05.028Z,10.63
2018-08-03T07:09:39.363Z,12.53
2018-08-03T07:12:13.638Z,13.27
2018-08-03T07:14:47.980Z,12.10
2018-08-03T07:17:22.254Z,12.77
2018-08-03T07:19:56.608Z,11.57
2018-08-03T07:22:30.870Z,12.47
2018-08-03T07:25:05.414Z,10.87
2018-08-03T07:27:39.577Z,10.23
2018-08-03T07:30:13.970Z,11.53
2018-08-03T07:32:48.114Z,10.90
2018-08-03T07:35:22.582Z,10.50
2018-08-03T07:37:56.951Z,9.90
2018-08-03T07:40:31.265Z,10.97
2018-08-03T07:43:05.606Z,9.40
2018-08-03T07:45:39.669Z,9.30
2018-08-03T07:48:13.862Z,10.20
2018-08-03T07:50:48.145Z,9.77
2018-08-03T07:53:22.379Z,8.70
2018-08-03T07:55:56.582Z,8.90
2018-08-03T07:58:30.917Z,8.73
2018-08-03T08:01:05.290Z,8.87
2018-08-03T08:03:39.561Z,8.90
2018-08-03T08:06:13.734Z,9.10
2018-08-03T08:08:48.036Z,7.40
2018-08-03T08:11:22.290Z,9.37
2018-08-03T08:13:56.589Z,8.50
2018-08-03T08:16:30.846Z,7.80
2018-08-03T08:19:05.246Z,10.60
2018-08-03T08:21:39.561Z,7.83
2018-08-03T08:24:13.874Z,7.93
2018-08-03T08:26:48.190Z,6.77
2018-08-03T08:29:22.734Z,7.03
2018-08-03T08:31:57.381Z,9.37
2018-08-03T08:34:31.750Z,7.17
2018-08-03T08:37:06.057Z,7.13
2018-08-03T08:39:40.027Z,6.23
2018-08-03T08:42:14.222Z,7.33
2018-08-03T08:44:48.547Z,7.17
2018-08-03T08:47:22.915Z,7.10
2018-08-03T08:49:57.229Z,6.83
2018-08-03T08:52:31.563Z,7.27
2018-08-03T08:55:06.031Z,7.30
2018-08-03T08:57:40.249Z,7.80
2018-08-03T09:00:14.597Z,8.60
2018-08-03T09:02:49.082Z,9.63
2018-08-03T09:05:23.311Z,6.30
2018-08-03T09:07:57.547Z,7.77
2018-08-03T09:10:31.795Z,7.73
2018-08-03T09:13:06.387Z,6.47
2018-08-03T09:15:40.654Z,5.87
2018-08-03T09:18:14.924Z,6.63
2018-08-03T09:20:49.202Z,6.23
2018-08-03T09:23:23.562Z,5.27
2018-08-03T09:25:57.840Z,5.97
2018-08-03T09:28:32.156Z,6.53
2018-08-03T09:31:06.626Z,6.17
2018-08-03T09:33:40.832Z,5.60
2018-08-03T09:36:15.110Z,8.77
2018-08-03T09:38:49.422Z,5.10
2018-08-03T09:41:23.622Z,6.47
2018-08-03T09:43:57.883Z,4.97
2018-08-03T09:46:32.214Z,4.90
2018-08-03T09:49:06.855Z,5.03
2018-08-03T09:51:41.137Z,4.33
2018-08-03T09:54:15.350Z,3.87
2018-08-03T09:56:49.594Z,5.37
2018-08-03T09:59:23.885Z,3.80
2018-08-03T10:01:58.151Z,11.83
2018-08-03T10:04:32.374Z,4.30
2018-08-03T10:07:06.870Z,4.83
2018-08-03T10:09:41.142Z,7.83
2018-08-03T10:12:15.466Z,5.43
2018-08-03T10:14:49.805Z,4.40
2018-08-03T10:17:24.058Z,3.83
2018-08-03T10:19:58.310Z,6.30
2018-08-03T10:22:32.596Z,3.77
2018-08-03T10:25:06.935Z,6.03
2018-08-03T10:27:41.150Z,8.47
2018-08-03T10:30:15.311Z,6.37
2018-08-03T10:32:49.745Z,3.53
2018-08-03T10:35:23.938Z,4.83
2018-08-03T10:37:58.278Z,3.97
2018-08-03T10:40:32.595Z,3.93
2018-08-03T10:43:07.058Z,4.37
2018-08-03T10:45:41.325Z,5.27
2018-08-03T10:48:15.727Z,4.23
2018-08-03T10:50:50.015Z,4.27
2018-08-03T10:53:24.343Z,4.83
2018-08-03T10:55:58.542Z,5.67
2018-08-03T10:58:32.694Z,5.40
2018-08-03T11:01:06.972Z,4.60
2018-08-03T11:03:41.278Z,6.07
2018-08-03T11:06:15.637Z,4.80
2018-08-03T11:08:49.786Z,8.97
2018-08-03T11:11:24.027Z,5.20
2018-08-03T11:13:58.497Z,4.17
2018-08-03T11:16:32.573Z,3.57
2018-08-03T11:19:06.864Z,4.30
2018-08-03T11:21:41.151Z,3.73
2018-08-03T11:24:15.631Z,4.87
2018-08-03T11:26:49.684Z,4.87
2018-08-03T11:29:23.909Z,5.33
2018-08-03T11:31:58.205Z,3.93
2018-08-03T11:34:32.486Z,3.87
2018-08-03T11:37:06.764Z,4.97
2018-08-03T11:39:41.015Z,3.80
2018-08-03T11:42:15.295Z,4.20
2018-08-03T11:44:49.610Z,5.60
2018-08-03T11:47:23.852Z,4.27
2018-08-03T11:49:58.045Z,4.93
2018-08-03T11:52:32.334Z,5.70
2018-08-03T11:55:06.685Z,7.50
2018-08-03T11:57:40.901Z,6.00
2018-08-03T12:00:15.214Z,9.33
2018-08-03T12:02:49.407Z,4.60
2018-08-03T12:05:23.592Z,4.13
2018-08-03T12:07:58.335Z,5.10
2018-08-03T12:10:32.705Z,6.00
2018-08-03T12:13:06.982Z,4.00
2018-08-03T12:15:41.162Z,4.20
2018-08-03T12:18:15.606Z,5.53
2018-08-03T12:20:49.824Z,5.00
2018-08-03T12:23:24.200Z,4.47
2018-08-03T12:25:58.393Z,4.00
2018-08-03T12:28:32.703Z,4.60
2018-08-03T12:31:07.135Z,5.80
2018-08-03T12:33:41.411Z,8.07
2018-08-03T12:36:15.559Z,6.57
2018-08-03T12:38:49.998Z,6.70
2018-08-03T12:41:24.202Z,3.53
2018-08-03T12:43:58.382Z,3.80
2018-08-03T12:46:32.622Z,4.50
2018-08-03T12:49:06.868Z,4.40
2018-08-03T12:51:41.118Z,3.50
2018-08-03T12:54:15.534Z,6.63
2018-08-03T12:56:49.888Z,3.63
2018-08-03T12:59:24.353Z,5.73
2018-08-03T13:01:58.651Z,4.80
2018-08-03T13:04:33.037Z,6.93
2018-08-03T13:07:08.294Z,6.50
2018-08-03T13:09:42.361Z,5.87
2018-08-03T13:12:16.674Z,3.33
2018-08-03T13:14:51.047Z,4.07
2018-08-03T13:17:25.214Z,3.73
2018-08-03T13:19:59.567Z,3.97
2018-08-03T13:22:33.858Z,3.63
2018-08-03T13:25:08.142Z,4.50
2018-08-03T13:27:42.282Z,3.57
2018-08-03T13:30:16.637Z,4.33
2018-08-03T13:32:50.910Z,6.40
2018-08-03T13:35:25.109Z,7.10
2018-08-03T13:37:59.483Z,3.70
2018-08-03T13:40:33.851Z,4.50
2018-08-03T13:43:08.104Z,3.72
2018-08-03T13:45:42.403Z,6.67
2018-08-03T13:48:16.690Z,5.30
2018-08-03T13:50:51.082Z,4.97
2018-08-03T13:53:25.659Z,7.00
2018-08-03T13:55:59.852Z,5.17
2018-08-03T13:58:34.130Z,3.67
2018-08-03T14:01:19.879Z,4.28
2018-08-03T14:03:54.357Z,3.83
2018-08-03T14:06:28.655Z,7.73
2018-08-03T14:09:03.375Z,3.93
2018-08-03T14:11:37.522Z,7.67
2018-08-03T14:14:11.770Z,5.47
2018-08-03T14:16:45.965Z,5.05
2018-08-03T14:19:20.085Z,9.17
2018-08-03T14:21:54.401Z,4.62
2018-08-03T14:24:28.617Z,5.80
2018-08-03T14:27:03.473Z,5.05
2018-08-03T14:29:37.813Z,5.78
2018-08-03T14:32:12.061Z,5.75
2018-08-03T14:34:46.387Z,4.05
2018-08-03T14:37:20.547Z,5.97
2018-08-03T14:39:55.056Z,4.05
2018-08-03T14:42:29.354Z,4.83
2018-08-03T14:45:03.434Z,3.83
2018-08-03T14:47:37.667Z,3.70
2018-08-03T14:50:12.085Z,5.28
2018-08-03T14:52:46.395Z,3.72
2018-08-03T14:55:20.765Z,4.85
2018-08-03T14:57:55.061Z,5.67
2018-08-03T15:00:29.270Z,4.33
2018-08-03T15:03:03.432Z,4.67
2018-08-03T15:05:37.714Z,5.60
2018-08-03T15:08:11.934Z,6.10
2018-08-03T15:10:46.346Z,5.03
2018-08-03T15:13:20.726Z,3.70
2018-08-03T15:15:55.001Z,8.55
2018-08-03T15:18:29.237Z,6.28
2018-08-03T15:21:03.587Z,8.78
2018-08-03T15:23:37.785Z,39.63
2018-08-03T15:26:12.001Z,5.47
2018-08-03T15:28:46.170Z,5.95
2018-08-03T15:31:20.485Z,4.47
2018-08-03T15:33:54.763Z,3.65
2018-08-03T15:36:29.050Z,5.30
2018-08-03T15:39:03.487Z,6.53
2018-08-03T15:41:37.775Z,8.80
2018-08-03T15:44:12.030Z,4.17
2018-08-03T15:46:46.213Z,4.78
2018-08-03T15:49:20.535Z,4.83
2018-08-03T15:51:54.879Z,3.98
2018-08-03T15:54:29.257Z,5.87
2018-08-03T15:57:03.565Z,5.15
2018-08-03T15:59:38.077Z,8.88
2018-08-03T16:02:12.339Z,5.72
2018-08-03T16:04:46.541Z,7.60
2018-08-03T16:07:20.794Z,3.90
2018-08-03T16:09:55.066Z,6.50
2018-08-03T16:12:29.373Z,3.77
2018-08-03T16:15:03.525Z,3.72
2018-08-03T16:17:37.767Z,4.70
2018-08-03T16:20:12.031Z,4.15
2018-08-03T16:22:46.355Z,8.30
2018-08-03T16:25:20.699Z,4.12
2018-08-03T16:27:54.841Z,8.05
2018-08-03T16:30:28.886Z,4.47
2018-08-03T16:33:03.085Z,4.50
2018-08-03T16:35:37.346Z,3.87
2018-08-03T16:38:11.758Z,6.65
2018-08-03T16:40:46.037Z,5.67
2018-08-03T16:43:20.374Z,3.58
2018-08-03T16:45:54.664Z,6.00
2018-08-03T16:48:29.005Z,4.00
2018-08-03T16:51:03.256Z,3.85
2018-08-03T16:53:37.539Z,5.67
2018-08-03T16:56:11.803Z,3.72
2018-08-03T16:58:46.139Z,7.75
2018-08-03T17:01:20.503Z,3.50
2018-08-03T17:03:54.823Z,5.25
2018-08-03T17:06:29.282Z,4.55
2018-08-03T17:09:04.091Z,4.03
2018-08-03T17:11:38.522Z,3.60
2018-08-03T17:14:12.662Z,4.60
2018-08-03T17:16:46.939Z,5.08
2018-08-03T17:19:21.243Z,3.80
2018-08-03T17:21:55.583Z,3.70
2018-08-03T17:24:29.827Z,5.90
2018-08-03T17:27:04.146Z,5.28
2018-08-03T17:29:38.417Z,5.78
2018-08-03T17:32:12.705Z,3.98
2018-08-03T17:34:47.018Z,4.45
2018-08-03T17:37:21.322Z,3.97
2018-08-03T17:39:55.598Z,6.45
2018-08-03T17:42:30.027Z,4.00
2018-08-03T17:45:04.539Z,6.85
2018-08-03T17:47:38.817Z,3.90
2018-08-03T17:50:13.136Z,4.00
2018-08-03T17:52:47.522Z,4.53
2018-08-03T17:55:21.902Z,6.30
2018-08-03T17:57:56.200Z,5.80
2018-08-03T18:00:30.510Z,6.83
2018-08-03T18:03:05.085Z,6.60
2018-08-03T18:05:39.366Z,8.60
2018-08-03T18:08:13.663Z,10.40
2018-08-03T18:10:47.978Z,7.70
2018-08-03T18:13:22.294Z,6.90
2018-08-03T18:15:56.594Z,11.90
2018-08-03T18:18:31.010Z,7.03
2018-08-03T18:21:05.234Z,10.27
2018-08-03T18:23:39.553Z,9.90
2018-08-03T18:26:13.658Z,7.13
2018-08-03T18:28:47.950Z,14.23
2018-08-03T18:31:22.335Z,5.90
2018-08-03T18:33:56.522Z,11.63
2018-08-03T18:36:30.746Z,7.17
2018-08-03T18:39:07.178Z,5.63
2018-08-03T18:41:41.450Z,7.03
2018-08-03T18:44:15.789Z,7.80
2018-08-03T18:46:50.195Z,8.93
2018-08-03T18:49:24.444Z,6.70
2018-08-03T18:51:58.770Z,13.17
2018-08-03T18:54:33.216Z,8.00
2018-08-03T18:57:07.563Z,7.33
2018-08-03T18:59:41.830Z,11.07
2018-08-03T19:02:16.123Z,7.33
2018-08-03T19:04:50.442Z,7.73
2018-08-03T19:07:24.728Z,7.07
2018-08-03T19:09:59.043Z,8.97
2018-08-03T19:12:33.395Z,7.30
2018-08-03T19:15:07.893Z,5.20
2018-08-03T19:17:42.194Z,5.40
2018-08-03T19:20:16.608Z,5.90
2018-08-03T19:22:50.750Z,10.73
2018-08-03T19:25:25.054Z,13.23
2018-08-03T19:27:59.470Z,9.93
2018-08-03T19:30:33.755Z,5.93
2018-08-03T19:33:08.126Z,5.30
2018-08-03T19:35:42.413Z,6.00
2018-08-03T19:38:16.660Z,6.93
2018-08-03T19:40:51.122Z,4.73
2018-08-03T19:43:25.385Z,7.07
2018-08-03T19:45:59.696Z,5.50
2018-08-03T19:48:33.998Z,7.53
2018-08-03T19:51:08.223Z,6.60
2018-08-03T19:53:42.611Z,7.60
2018-08-03T19:56:16.858Z,6.93
2018-08-03T19:58:51.557Z,9.83
2018-08-03T20:01:25.659Z,5.37
2018-08-03T20:04:00.398Z,6.97
2018-08-03T20:06:34.603Z,8.20
2018-08-03T20:09:10.710Z,6.20
2018-08-03T20:11:45.006Z,5.70
2018-08-03T20:14:19.306Z,3.60
2018-08-03T20:16:53.591Z,5.27
2018-08-03T20:19:27.798Z,4.57
2018-08-03T20:22:02.113Z,7.30
2018-08-03T20:24:36.394Z,4.00
2018-08-03T20:27:10.630Z,4.50
2018-08-03T20:29:45.151Z,7.33
2018-08-03T20:32:19.076Z,3.73
2018-08-03T20:34:53.297Z,6.03
2018-08-03T20:37:27.631Z,6.37
2018-08-03T20:40:01.799Z,4.23
2018-08-03T20:42:36.094Z,10.87
2018-08-03T20:45:10.489Z,4.17
2018-08-03T20:47:44.795Z,6.73
2018-08-03T20:50:19.182Z,5.77
2018-08-03T20:52:53.566Z,6.37
2018-08-03T20:55:28.112Z,9.20
2018-08-03T20:58:02.395Z,6.33
2018-08-03T21:00:36.713Z,4.27
2018-08-03T21:03:11.060Z,6.10
2018-08-03T21:05:45.351Z,4.43
2018-08-03T21:08:19.570Z,4.60
2018-08-03T21:10:53.826Z,4.23
2018-08-03T21:13:27.951Z,5.73
2018-08-03T21:16:02.431Z,8.10
2018-08-03T21:18:36.766Z,4.57
2018-08-03T21:21:11.141Z,5.93
2018-08-03T21:23:45.363Z,7.20
2018-08-03T21:26:19.781Z,4.43
2018-08-03T21:28:54.146Z,3.23
2018-08-03T21:31:28.594Z,4.70
2018-08-03T21:34:02.914Z,7.30
2018-08-03T21:36:37.174Z,5.23
2018-08-03T21:39:12.125Z,7.83
2018-08-03T21:41:46.331Z,8.70
2018-08-03T21:44:20.648Z,3.17
2018-08-03T21:46:54.955Z,5.87
2018-08-03T21:49:29.211Z,4.93
2018-08-03T21:52:03.646Z,7.40
2018-08-03T21:54:37.841Z,6.70
2018-08-03T21:57:12.126Z,4.83
2018-08-03T21:59:46.400Z,6.20
2018-08-03T22:02:20.814Z,6.23
2018-08-03T22:04:55.056Z,4.03
2018-08-03T22:07:29.348Z,4.43
2018-08-03T22:10:03.669Z,7.40
2018-08-03T22:12:37.993Z,5.40
2018-08-03T22:15:12.259Z,9.57
2018-08-03T22:17:46.441Z,3.17
2018-08-03T22:20:20.614Z,5.00
2018-08-03T22:22:54.796Z,3.63
2018-08-03T22:25:29.053Z,3.37
2018-08-03T22:28:03.413Z,5.17
2018-08-03T22:30:37.735Z,6.93
2018-08-03T22:33:12.003Z,3.63
2018-08-03T22:35:46.288Z,5.20
2018-08-03T22:38:20.598Z,4.03
2018-08-03T22:40:54.931Z,11.37
2018-08-03T22:43:29.207Z,4.37
2018-08-03T22:46:03.506Z,5.27
2018-08-03T22:48:37.771Z,5.07
2018-08-03T22:51:12.122Z,4.83
2018-08-03T22:53:46.338Z,5.77
2018-08-03T22:56:20.682Z,4.97
2018-08-03T22:58:54.949Z,3.20
2018-08-03T23:01:29.349Z,3.07
2018-08-03T23:04:03.634Z,3.83
2018-08-03T23:06:37.957Z,3.53
2018-08-03T23:09:12.286Z,3.43
2018-08-03T23:11:46.643Z,4.10
2018-08-03T23:14:20.846Z,3.80
2018-08-03T23:16:55.190Z,4.47
2018-08-03T23:19:29.498Z,4.10
2018-08-03T23:22:03.879Z,4.03
2018-08-03T23:24:38.175Z,3.87
2018-08-03T23:27:12.525Z,4.17
2018-08-03T23:29:46.790Z,4.23
2018-08-03T23:32:21.145Z,4.37
2018-08-03T23:34:55.446Z,6.00
2018-08-03T23:37:29.809Z,8.80
2018-08-03T23:40:04.391Z,6.07
2018-08-03T23:42:38.718Z,3.03
2018-08-03T23:45:13.079Z,3.80
2018-08-03T23:47:47.354Z,5.87
2018-08-03T23:50:21.663Z,4.97
2018-08-03T23:52:55.993Z,4.83
2018-08-03T23:55:30.159Z,6.03
2018-08-03T23:58:04.344Z,5.03
